Nekoma, Kansas
Current Conditions -  °F | °C
As of 8:35 AM on Monday 26 Jan 2015 (Local Time) from KHYS Reporting Station
Clear Clear  
Wind Chill: 36°   Ceiling: Unl
Heat Index: 43°   Visibility: 10mi
Dew Point: 28°   Wind: 14mph
Humidity: 57%   Direction: 300°WNW
Pressure: 30.05"   Gusts: NA
Location:  38.47°N, 99.44°W
Report Text: KHYS 261435Z AUTO 30012KT 10SM CLR 06/M02 A3005 RMK AO1
Loading
Personal Weather Stations






























Interactive Weather Map New forecast layout! Learn more

10-Day Weather Forecast

Advertisements
Track Severe Weather on mobile